Time;durP1;ratioP1;P1;durP2;ratioP2;P2;SDS_P1;SDS_P2;PMS_P1;PMS_P2;Temp;Humidity;BMP_temperature;BMP_pressure;BME280_temperature;BME280_humidity;BME280_pressure;Samples;Min_cycle;Max_cycle;Signal;HPM_P1;HPM_P2
2023/03/21 00:01:23;;;;;;;8.40;6.30;;;;;;;;;;79723;270;3030666;-34
2023/03/21 00:04:00;;;;;;;8.50;6.50;;;;;;;;;;79717;262;3031949;-33
2023/03/21 00:06:37;;;;;;;8.00;6.40;;;;;;;;;;79719;262;3027952;-34
2023/03/21 00:09:22;;;;;;;7.60;6.00;;;;;;;;;;79740;261;3027547;-34
2023/03/21 00:12:00;;;;;;;8.30;6.20;;;;;;;;;;79673;263;3030699;-34
2023/03/21 00:14:36;;;;;;;8.10;6.00;;;;;;;;;;79734;262;3031972;-34
2023/03/21 00:17:15;;;;;;;8.10;6.10;;;;;;;;;;79681;262;3028469;-34
2023/03/21 00:19:53;;;;;;;7.50;6.00;;;;;;;;;;79720;261;3027368;-34
2023/03/21 00:22:31;;;;;;;8.10;6.20;;;;;;;;;;79696;261;3030449;-34
2023/03/21 00:25:09;;;;;;;7.40;6.20;;;;;;;;;;79716;262;3031108;-34
2023/03/21 00:27:47;;;;;;;7.20;6.10;;;;;;;;;;79684;262;3029158;-34
2023/03/21 00:30:45;;;;;;;7.50;5.80;;;;;;;;;;79728;262;3027446;-34
2023/03/21 00:33:24;;;;;;;7.70;6.20;;;;;;;;;;79728;261;3030699;-34
2023/03/21 00:36:00;;;;;;;6.80;6.00;;;;;;;;;;79708;262;3031992;-34
2023/03/21 00:38:42;;;;;;;7.60;5.90;;;;;;;;;;79735;262;3035915;-34
2023/03/21 00:41:20;;;;;;;7.90;5.70;;;;;;;;;;79745;262;3027432;-34
2023/03/21 00:44:20;;;;;;;7.50;6.00;;;;;;;;;;79715;261;3030914;-34
2023/03/21 00:47:01;;;;;;;7.20;5.90;;;;;;;;;;79696;261;3031858;-34
2023/03/21 00:49:44;;;;;;;7.90;6.30;;;;;;;;;;79715;261;3028415;-34
2023/03/21 00:52:21;;;;;;;7.30;6.10;;;;;;;;;;79737;261;3027231;-34
2023/03/21 00:55:17;;;;;;;;;;;;;;;;;;79739;261;3030631;-34
2023/03/21 00:57:57;;;;;;;7.40;5.70;;;;;;;;;;79662;261;3032358;-34
2023/03/21 01:00:40;;;;;;;7.20;5.70;;;;;;;;;;79709;265;3028572;-34
2023/03/21 01:03:19;;;;;;;7.50;6.00;;;;;;;;;;79706;261;3027115;-34
2023/03/21 01:06:05;;;;;;;7.20;5.70;;;;;;;;;;79707;261;3031310;-34
2023/03/21 01:08:46;;;;;;;7.50;5.70;;;;;;;;;;79694;261;3031296;-34
2023/03/21 01:11:33;;;;;;;7.50;6.00;;;;;;;;;;79709;261;3027910;-34
2023/03/21 01:14:15;;;;;;;8.10;6.10;;;;;;;;;;79736;261;3027717;-34
2023/03/21 01:17:00;;;;;;;7.90;5.70;;;;;;;;;;79711;261;3032704;-34
2023/03/21 01:19:40;;;;;;;6.90;5.50;;;;;;;;;;79713;261;3040107;-34
2023/03/21 01:22:29;;;;;;;7.90;5.90;;;;;;;;;;79718;261;3028674;-34
2023/03/21 01:25:09;;;;;;;7.90;5.70;;;;;;;;;;79736;261;3027586;-34
2023/03/21 01:27:57;;;;;;;7.50;5.80;;;;;;;;;;79720;261;3030702;-34
2023/03/21 01:30:34;;;;;;;7.40;5.60;;;;;;;;;;79748;261;3031425;-34
2023/03/21 01:33:19;;;;;;;7.40;5.80;;;;;;;;;;79708;261;3028105;-34
2023/03/21 01:35:58;;;;;;;7.50;5.60;;;;;;;;;;79698;261;3027713;-34
2023/03/21 01:38:49;;;;;;;7.40;5.60;;;;;;;;;;79713;261;3031275;-34
2023/03/21 01:41:30;;;;;;;7.00;5.30;;;;;;;;;;79709;262;3031734;-34
2023/03/21 01:44:21;;;;;;;7.10;5.40;;;;;;;;;;79732;261;3028713;-34
2023/03/21 01:47:00;;;;;;;6.90;5.30;;;;;;;;;;79746;262;3028184;-33
2023/03/21 01:49:55;;;;;;;6.80;5.50;;;;;;;;;;79688;262;3030727;-33
2023/03/21 01:52:37;;;;;;;6.80;5.30;;;;;;;;;;79697;261;3031544;-33
2023/03/21 01:55:17;;;;;;;6.70;5.10;;;;;;;;;;79722;270;3028380;-33
2023/03/21 01:57:55;;;;;;;6.70;5.20;;;;;;;;;;79729;261;3027708;-33
2023/03/21 02:00:43;;;;;;;7.00;5.30;;;;;;;;;;79722;261;3036443;-33
2023/03/21 02:03:22;;;;;;;7.20;5.40;;;;;;;;;;79755;261;3031860;-33
2023/03/21 02:06:17;;;;;;;7.20;5.30;;;;;;;;;;79750;262;3028295;-33
2023/03/21 02:08:56;;;;;;;6.70;5.30;;;;;;;;;;79719;261;3027449;-33
2023/03/21 02:11:34;;;;;;;7.30;5.50;;;;;;;;;;79733;261;3031680;-33
2023/03/21 02:14:15;;;;;;;7.10;5.20;;;;;;;;;;79763;261;3031345;-33
2023/03/21 02:17:13;;;;;;;7.00;5.50;;;;;;;;;;79742;261;3027922;-33
2023/03/21 02:20:31;;;;;;;7.10;5.50;;;;;;;;;;79673;261;3027384;-32
2023/03/21 02:23:56;;;;;;;6.80;5.30;;;;;;;;;;79717;261;3030965;-31
2023/03/21 02:26:58;;;;;;;7.20;5.40;;;;;;;;;;79738;262;3031764;-31
2023/03/21 02:30:14;;;;;;;6.70;5.10;;;;;;;;;;79690;261;3028050;-31
2023/03/21 02:33:38;;;;;;;7.10;5.40;;;;;;;;;;79688;261;3027737;-31
2023/03/21 02:36:30;;;;;;;7.30;5.40;;;;;;;;;;79715;262;3030961;-31
2023/03/21 02:39:14;;;;;;;6.60;5.10;;;;;;;;;;79709;262;3031229;-31
2023/03/21 02:42:02;;;;;;;6.50;5.20;;;;;;;;;;79746;262;3034100;-32
2023/03/21 02:44:46;;;;;;;6.80;5.10;;;;;;;;;;79742;262;3027137;-32
2023/03/21 02:47:28;;;;;;;6.90;4.90;;;;;;;;;;79733;262;3030947;-32
2023/03/21 02:50:15;;;;;;;6.80;5.40;;;;;;;;;;79729;262;3031293;-32
2023/03/21 02:52:54;;;;;;;6.50;4.90;;;;;;;;;;79742;262;3028184;-32
2023/03/21 02:55:36;;;;;;;6.70;5.20;;;;;;;;;;79737;262;3027572;-32
2023/03/21 02:58:16;;;;;;;6.70;5.30;;;;;;;;;;79720;262;3030335;-32
2023/03/21 03:00:54;;;;;;;6.70;5.00;;;;;;;;;;79682;262;3031414;-32
2023/03/21 03:03:35;;;;;;;7.40;5.10;;;;;;;;;;79704;250;3028545;-32
2023/03/21 03:06:20;;;;;;;6.00;4.80;;;;;;;;;;79710;262;3027118;-32
2023/03/21 03:09:20;;;;;;;6.40;4.80;;;;;;;;;;79733;261;3031160;-32
2023/03/21 03:12:09;;;;;;;6.30;4.80;;;;;;;;;;79732;261;3031354;-32
2023/03/21 03:14:58;;;;;;;6.30;4.60;;;;;;;;;;79696;261;3028378;-32
2023/03/21 03:17:54;;;;;;;6.40;4.80;;;;;;;;;;79745;261;3027015;-32
2023/03/21 03:20:43;;;;;;;7.00;4.90;;;;;;;;;;79728;258;3031138;-32
2023/03/21 03:23:27;;;;;;;6.60;4.90;;;;;;;;;;79736;261;3031545;-32
2023/03/21 03:26:09;;;;;;;6.80;4.70;;;;;;;;;;79753;250;3028420;-32
2023/03/21 03:28:49;;;;;;;6.60;4.50;;;;;;;;;;79762;261;3027337;-32
2023/03/21 03:31:31;;;;;;;7.20;4.80;;;;;;;;;;79717;261;3031096;-32
2023/03/21 03:34:13;;;;;;;6.20;4.70;;;;;;;;;;79763;262;3031916;-32
2023/03/21 03:36:55;;;;;;;6.70;4.70;;;;;;;;;;79720;261;3028767;-32
2023/03/21 03:39:39;;;;;;;6.10;4.70;;;;;;;;;;79757;262;3027513;-32
2023/03/21 03:42:21;;;;;;;6.50;4.70;;;;;;;;;;79719;262;3030638;-32
2023/03/21 03:45:07;;;;;;;6.00;4.50;;;;;;;;;;79721;262;3031477;-32
2023/03/21 03:47:49;;;;;;;6.40;4.90;;;;;;;;;;79698;262;3028389;-32
2023/03/21 03:50:37;;;;;;;6.20;4.80;;;;;;;;;;79717;278;3027071;-32
2023/03/21 03:53:22;;;;;;;5.80;4.50;;;;;;;;;;79817;262;3037314;-32
2023/03/21 03:56:03;;;;;;;5.90;4.60;;;;;;;;;;79709;262;3032657;-32
2023/03/21 03:58:41;;;;;;;6.20;4.60;;;;;;;;;;79732;262;3028001;-32
2023/03/21 04:01:26;;;;;;;6.50;4.50;;;;;;;;;;79721;262;3027657;-32
2023/03/21 04:04:06;;;;;;;6.20;4.50;;;;;;;;;;79750;261;3031134;-32
2023/03/21 04:06:50;;;;;;;6.20;4.20;;;;;;;;;;79755;261;3031273;-32
2023/03/21 04:09:27;;;;;;;5.80;4.10;;;;;;;;;;79724;262;3028793;-32
2023/03/21 04:12:19;;;;;;;6.50;4.50;;;;;;;;;;79697;261;3027938;-32
2023/03/21 04:14:55;;;;;;;6.00;4.40;;;;;;;;;;79738;261;3031254;-32
2023/03/21 04:17:48;;;;;;;6.10;4.60;;;;;;;;;;79754;261;3031964;-32
2023/03/21 04:20:26;;;;;;;6.00;4.20;;;;;;;;;;79727;262;3028009;-32
2023/03/21 04:23:13;;;;;;;7.20;4.20;;;;;;;;;;79704;278;3027348;-32
2023/03/21 04:25:51;;;;;;;6.80;4.70;;;;;;;;;;79720;261;3031022;-32
2023/03/21 04:28:34;;;;;;;5.80;4.20;;;;;;;;;;79713;261;3032070;-32
2023/03/21 04:31:12;;;;;;;7.10;4.20;;;;;;;;;;79745;261;3028710;-32
2023/03/21 04:34:04;;;;;;;6.40;4.40;;;;;;;;;;79721;261;3027524;-32
2023/03/21 04:36:44;;;;;;;5.60;4.40;;;;;;;;;;79725;261;3030926;-32
2023/03/21 04:39:23;;;;;;;6.30;4.00;;;;;;;;;;79756;262;3031134;-32
2023/03/21 04:42:01;;;;;;;6.30;4.40;;;;;;;;;;79711;261;3028686;-32
2023/03/21 04:44:40;;;;;;;6.50;4.40;;;;;;;;;;79705;261;3033197;-33
2023/03/21 04:47:19;;;;;;;7.30;4.40;;;;;;;;;;79743;261;3030516;-33
2023/03/21 04:49:55;;;;;;;6.80;4.40;;;;;;;;;;79743;262;3032049;-33
2023/03/21 04:52:37;;;;;;;6.40;4.40;;;;;;;;;;79697;261;3028822;-33
2023/03/21 04:55:21;;;;;;;6.30;4.40;;;;;;;;;;79694;270;3028309;-33
2023/03/21 04:58:00;;;;;;;6.60;4.40;;;;;;;;;;79734;261;3030380;-33
2023/03/21 05:00:38;;;;;;;6.80;4.40;;;;;;;;;;79714;262;3031817;-33
2023/03/21 05:03:18;;;;;;;7.60;4.50;;;;;;;;;;79692;262;3028725;-33
2023/03/21 05:05:54;;;;;;;6.20;4.30;;;;;;;;;;79707;261;3027378;-34
2023/03/21 05:08:31;;;;;;;6.80;4.40;;;;;;;;;;79688;261;3030599;-34
2023/03/21 05:11:10;;;;;;;6.80;4.50;;;;;;;;;;79704;261;3031418;-34
2023/03/21 05:13:48;;;;;;;6.30;4.60;;;;;;;;;;79717;262;3028608;-34
2023/03/21 05:16:29;;;;;;;6.30;4.30;;;;;;;;;;79723;261;3027245;-34
2023/03/21 05:19:12;;;;;;;7.00;4.40;;;;;;;;;;79745;261;3031898;-35
2023/03/21 05:21:54;;;;;;;6.20;4.30;;;;;;;;;;79687;262;3031280;-34
2023/03/21 05:24:32;;;;;;;6.70;4.40;;;;;;;;;;79724;261;3028420;-34
2023/03/21 05:27:12;;;;;;;6.70;4.30;;;;;;;;;;79715;261;3027930;-34
2023/03/21 05:29:52;;;;;;;6.70;4.60;;;;;;;;;;79724;261;3031434;-34
2023/03/21 05:32:30;;;;;;;6.60;4.20;;;;;;;;;;79735;261;3031221;-34
2023/03/21 05:35:08;;;;;;;5.80;4.20;;;;;;;;;;79685;262;3028299;-34
2023/03/21 05:37:44;;;;;;;6.30;4.00;;;;;;;;;;79748;262;3027229;-34
2023/03/21 05:40:22;;;;;;;6.40;4.30;;;;;;;;;;79712;262;3031288;-34
2023/03/21 05:42:59;;;;;;;5.80;4.20;;;;;;;;;;79715;262;3031293;-34
2023/03/21 05:45:40;;;;;;;5.90;4.00;;;;;;;;;;79674;261;3028378;-34
2023/03/21 05:48:20;;;;;;;6.30;4.20;;;;;;;;;;79704;261;3027593;-34
2023/03/21 05:50:58;;;;;;;5.60;3.90;;;;;;;;;;79713;261;3030390;-34
2023/03/21 05:53:38;;;;;;;6.20;4.00;;;;;;;;;;79712;261;3032033;-34
2023/03/21 05:56:18;;;;;;;5.70;4.00;;;;;;;;;;79715;262;3035006;-34
2023/03/21 05:58:55;;;;;;;6.10;3.80;;;;;;;;;;79750;261;3028002;-34
2023/03/21 06:01:33;;;;;;;5.50;3.70;;;;;;;;;;79735;261;3029840;-34
2023/03/21 06:04:14;;;;;;;5.90;4.10;;;;;;;;;;79718;261;3031958;-34
2023/03/21 06:06:52;;;;;;;5.60;3.70;;;;;;;;;;79726;261;3028821;-34
2023/03/21 06:09:30;;;;;;;5.60;3.80;;;;;;;;;;79732;262;3027911;-34
2023/03/21 06:12:08;;;;;;;5.90;3.80;;;;;;;;;;79746;261;3030412;-34
2023/03/21 06:14:46;;;;;;;6.10;3.70;;;;;;;;;;79722;261;3031942;-34
2023/03/21 06:17:24;;;;;;;6.10;3.90;;;;;;;;;;79778;261;3028258;-34
2023/03/21 06:20:02;;;;;;;5.90;3.70;;;;;;;;;;79735;261;3027172;-34
2023/03/21 06:22:40;;;;;;;6.20;3.70;;;;;;;;;;79749;261;3031364;-34
2023/03/21 06:25:18;;;;;;;6.50;4.00;;;;;;;;;;79737;261;3031108;-34
2023/03/21 06:27:54;;;;;;;6.90;4.40;;;;;;;;;;79708;261;3028382;-34
2023/03/21 06:30:32;;;;;;;6.30;4.60;;;;;;;;;;79745;261;3027316;-34
2023/03/21 06:33:12;;;;;;;7.40;4.20;;;;;;;;;;79726;261;3031389;-34
2023/03/21 06:35:55;;;;;;;6.60;4.00;;;;;;;;;;79433;262;3031101;-34
2023/03/21 06:38:36;;;;;;;6.90;4.20;;;;;;;;;;79733;262;3028649;-34
2023/03/21 06:41:15;;;;;;;6.60;4.00;;;;;;;;;;79754;262;3027660;-34
2023/03/21 06:43:51;;;;;;;7.40;4.00;;;;;;;;;;79748;261;3031227;-38
2023/03/21 06:46:30;;;;;;;6.90;4.10;;;;;;;;;;80420;262;3012853;-38
2023/03/21 06:49:10;;;;;;;5.80;3.60;;;;;;;;;;79757;261;3031710;-38
2023/03/21 06:51:50;;;;;;;6.00;3.80;;;;;;;;;;79739;262;3028002;-38
2023/03/21 06:54:28;;;;;;;7.50;3.80;;;;;;;;;;79763;262;3027782;-37
2023/03/21 06:57:05;;;;;;;6.70;3.90;;;;;;;;;;79732;262;3031115;-37
2023/03/21 06:59:43;;;;;;;6.40;3.70;;;;;;;;;;79737;262;3031588;-37
2023/03/21 07:02:23;;;;;;;6.50;3.90;;;;;;;;;;79757;261;3028280;-37
2023/03/21 07:05:02;;;;;;;6.00;3.50;;;;;;;;;;79773;262;3027606;-38
2023/03/21 07:07:40;;;;;;;6.60;3.60;;;;;;;;;;79765;262;3037917;-38
2023/03/21 07:10:21;;;;;;;5.60;3.40;;;;;;;;;;79752;262;3031846;-38
2023/03/21 07:13:02;;;;;;;6.50;3.50;;;;;;;;;;79682;262;3028312;-36
2023/03/21 07:15:41;;;;;;;5.60;3.60;;;;;;;;;;79719;262;3027490;-36
2023/03/21 07:18:22;;;;;;;6.40;3.70;;;;;;;;;;79727;262;3030886;-36
2023/03/21 07:21:01;;;;;;;5.70;3.40;;;;;;;;;;79741;262;3031919;-36
2023/03/21 07:23:40;;;;;;;5.70;3.40;;;;;;;;;;79697;262;3028780;-36
2023/03/21 07:26:19;;;;;;;5.80;3.40;;;;;;;;;;79678;262;3027853;-36
2023/03/21 07:28:57;;;;;;;5.80;3.40;;;;;;;;;;79729;261;3030332;-36
2023/03/21 07:31:35;;;;;;;5.60;3.20;;;;;;;;;;79704;261;3031550;-36
2023/03/21 07:34:15;;;;;;;5.10;3.20;;;;;;;;;;79739;262;3028450;-36
2023/03/21 07:36:56;;;;;;;5.60;3.50;;;;;;;;;;79684;262;3027616;-36
2023/03/21 07:39:33;;;;;;;5.60;3.40;;;;;;;;;;79733;261;3030873;-36
2023/03/21 07:42:10;;;;;;;5.50;3.30;;;;;;;;;;79755;262;3032095;-36
2023/03/21 07:44:49;;;;;;;5.30;3.20;;;;;;;;;;79733;262;3027955;-36
2023/03/21 07:47:28;;;;;;;5.30;3.20;;;;;;;;;;79721;261;3027954;-36
2023/03/21 07:50:05;;;;;;;5.70;3.20;;;;;;;;;;79719;262;3030669;-36
2023/03/21 07:52:46;;;;;;;5.40;3.00;;;;;;;;;;79717;262;3031964;-36
2023/03/21 07:55:24;;;;;;;5.40;3.00;;;;;;;;;;79743;262;3028723;-36
2023/03/21 07:58:02;;;;;;;5.30;3.00;;;;;;;;;;79699;261;3027329;-36
2023/03/21 08:00:41;;;;;;;5.20;2.90;;;;;;;;;;79711;262;3030949;-35
2023/03/21 08:03:20;;;;;;;4.70;2.90;;;;;;;;;;79722;262;3032133;-36
2023/03/21 08:05:58;;;;;;;5.20;3.30;;;;;;;;;;79657;261;3028772;-36
2023/03/21 08:08:38;;;;;;;5.10;2.80;;;;;;;;;;79693;261;3027492;-36
2023/03/21 08:11:20;;;;;;;5.90;2.90;;;;;;;;;;79708;261;3030408;-36
2023/03/21 08:14:03;;;;;;;4.50;2.90;;;;;;;;;;79721;262;3033426;-35
2023/03/21 08:16:39;;;;;;;5.60;2.70;;;;;;;;;;79725;261;3028062;-35
2023/03/21 08:19:19;;;;;;;4.60;2.80;;;;;;;;;;79690;262;3033013;-35
2023/03/21 08:21:59;;;;;;;4.50;2.80;;;;;;;;;;79705;261;3030941;-35
2023/03/21 08:24:38;;;;;;;4.90;2.80;;;;;;;;;;79720;261;3031353;-35
2023/03/21 08:27:19;;;;;;;4.50;2.70;;;;;;;;;;79711;261;3028908;-35
2023/03/21 08:29:57;;;;;;;4.50;2.80;;;;;;;;;;79723;261;3030189;-35
2023/03/21 08:32:37;;;;;;;4.80;2.80;;;;;;;;;;79740;250;3030638;-35
2023/03/21 08:35:15;;;;;;;5.10;2.80;;;;;;;;;;79731;262;3031273;-35
2023/03/21 08:37:52;;;;;;;5.00;2.70;;;;;;;;;;79687;261;3027944;-35
2023/03/21 08:40:31;;;;;;;4.50;2.70;;;;;;;;;;79735;266;3027283;-35
2023/03/21 08:43:12;;;;;;;4.40;2.70;;;;;;;;;;80049;255;3031267;-35
2023/03/21 08:45:51;;;;;;;4.70;2.90;;;;;;;;;;80062;255;3031434;-35
2023/03/21 08:48:32;;;;;;;4.40;2.70;;;;;;;;;;80035;256;3028777;-35
2023/03/21 08:51:13;;;;;;;4.80;3.00;;;;;;;;;;80089;256;3027442;-35
2023/03/21 08:53:50;;;;;;;4.70;2.60;;;;;;;;;;80083;256;3030788;-35
2023/03/21 08:56:25;;;;;;;4.20;2.60;;;;;;;;;;80080;255;3031614;-35
2023/03/21 08:59:04;;;;;;;4.00;2.50;;;;;;;;;;80759;256;3011491;-35
2023/03/21 09:01:43;;;;;;;4.10;2.50;;;;;;;;;;80064;256;3028708;-35
2023/03/21 09:04:27;;;;;;;4.70;2.50;;;;;;;;;;80077;255;3027538;-35
2023/03/21 09:07:04;;;;;;;4.60;2.50;;;;;;;;;;80016;257;3029516;-35
2023/03/21 09:09:41;;;;;;;3.90;2.50;;;;;;;;;;80034;256;3031681;-35
2023/03/21 09:12:19;;;;;;;5.10;2.70;;;;;;;;;;80112;256;3028228;-35
2023/03/21 09:15:01;;;;;;;4.30;2.40;;;;;;;;;;80090;255;3027870;-35
2023/03/21 09:17:42;;;;;;;4.50;2.50;;;;;;;;;;80067;256;3031545;-35
2023/03/21 09:20:20;;;;;;;4.20;2.20;;;;;;;;;;80038;255;3031919;-35
2023/03/21 09:23:00;;;;;;;4.70;2.30;;;;;;;;;;80072;255;3030451;-35
2023/03/21 09:25:49;;;;;;;4.50;2.40;;;;;;;;;;80052;256;3027750;-36
2023/03/21 09:28:24;;;;;;;4.40;2.60;;;;;;;;;;80021;256;3030688;-37
2023/03/21 09:31:03;;;;;;;4.40;2.10;;;;;;;;;;80808;255;3011179;-37
2023/03/21 09:33:41;;;;;;;4.10;2.30;;;;;;;;;;80074;314;3031432;-37
2023/03/21 09:36:19;;;;;;;4.40;2.30;;;;;;;;;;80063;255;3030121;-37
2023/03/21 09:38:59;;;;;;;4.20;2.30;;;;;;;;;;80055;256;3027285;-37
2023/03/21 09:42:02;;;;;;;4.50;2.40;;;;;;;;;;80090;256;3031911;-37
2023/03/21 09:44:54;;;;;;;4.30;2.30;;;;;;;;;;80011;257;3031841;-38
2023/03/21 09:47:33;;;;;;;4.20;2.30;;;;;;;;;;80056;255;3028759;-38
2023/03/21 09:50:16;;;;;;;4.30;2.40;;;;;;;;;;80076;255;3027417;-38
2023/03/21 09:52:58;;;;;;;3.90;2.20;;;;;;;;;;80089;256;3031194;-38
2023/03/21 09:55:37;;;;;;;4.40;2.10;;;;;;;;;;80081;256;3031360;-37
2023/03/21 09:58:27;;;;;;;4.10;2.30;;;;;;;;;;80083;255;3028043;-37
2023/03/21 10:01:21;;;;;;;4.10;2.20;;;;;;;;;;80064;256;3027405;-37
2023/03/21 10:04:01;;;;;;;4.50;2.50;;;;;;;;;;80080;255;3030481;-38
2023/03/21 10:06:41;;;;;;;4.10;2.10;;;;;;;;;;80061;255;3031742;-38
2023/03/21 10:09:22;;;;;;;3.70;2.20;;;;;;;;;;80073;255;3027776;-38
2023/03/21 10:12:05;;;;;;;3.80;2.10;;;;;;;;;;80082;255;3034004;-38
2023/03/21 10:14:45;;;;;;;4.20;2.20;;;;;;;;;;80066;244;3031251;-38
2023/03/21 10:17:32;;;;;;;3.80;2.10;;;;;;;;;;80067;256;3032141;-37
2023/03/21 10:20:20;;;;;;;4.40;2.20;;;;;;;;;;80066;255;3028635;-37
2023/03/21 10:22:58;;;;;;;3.80;2.10;;;;;;;;;;80079;255;3027138;-37
2023/03/21 10:25:40;;;;;;;4.00;2.10;;;;;;;;;;80083;255;3030705;-37
2023/03/21 10:28:22;;;;;;;4.10;2.10;;;;;;;;;;80061;255;3031652;-38
2023/03/21 10:31:04;;;;;;;4.00;2.00;;;;;;;;;;80057;255;3028609;-38
2023/03/21 10:33:43;;;;;;;4.40;2.30;;;;;;;;;;80048;255;3027192;-38
2023/03/21 10:36:26;;;;;;;4.20;2.00;;;;;;;;;;80088;260;3029435;-38
2023/03/21 10:39:09;;;;;;;4.10;2.00;;;;;;;;;;80057;255;3031596;-38
2023/03/21 10:41:48;;;;;;;3.80;2.00;;;;;;;;;;80066;256;3028215;-38
2023/03/21 10:44:31;;;;;;;4.50;2.20;;;;;;;;;;80086;255;3027344;-38
2023/03/21 10:47:11;;;;;;;3.80;2.00;;;;;;;;;;80054;256;3031091;-37
2023/03/21 10:49:52;;;;;;;3.80;2.00;;;;;;;;;;80071;256;3031247;-38
2023/03/21 10:52:53;;;;;;;4.00;2.10;;;;;;;;;;80066;256;3035266;-38
2023/03/21 10:55:35;;;;;;;3.80;1.90;;;;;;;;;;80087;255;3027819;-38
2023/03/21 10:58:17;;;;;;;4.20;2.10;;;;;;;;;;80062;256;3030958;-37
2023/03/21 11:01:00;;;;;;;3.80;2.00;;;;;;;;;;80010;256;3032049;-37
2023/03/21 11:03:43;;;;;;;3.90;1.90;;;;;;;;;;80076;256;3028356;-37
2023/03/21 11:06:29;;;;;;;3.90;1.80;;;;;;;;;;80066;256;3027433;-38
2023/03/21 11:09:11;;;;;;;3.40;1.80;;;;;;;;;;80057;256;3030766;-37
2023/03/21 11:11:55;;;;;;;3.50;1.80;;;;;;;;;;80058;256;3033483;-37
2023/03/21 11:14:34;;;;;;;;;;;;;;;;;;80093;256;3028237;-38
2023/03/21 11:17:32;;;;;;;3.70;1.90;;;;;;;;;;80008;256;3028219;-38
2023/03/21 11:20:17;;;;;;;3.80;2.00;;;;;;;;;;80062;255;3030419;-37
2023/03/21 11:23:00;;;;;;;3.50;1.90;;;;;;;;;;80027;256;3032199;-37
2023/03/21 11:25:44;;;;;;;3.60;1.80;;;;;;;;;;80073;256;3028342;-37
2023/03/21 11:28:23;;;;;;;3.80;1.90;;;;;;;;;;80090;255;3027236;-37
2023/03/21 11:31:02;;;;;;;3.30;1.80;;;;;;;;;;80035;256;3030260;-37
2023/03/21 11:33:44;;;;;;;3.70;1.70;;;;;;;;;;80037;256;3037369;-38
2023/03/21 11:36:37;;;;;;;3.80;1.90;;;;;;;;;;80022;255;3028309;-38
2023/03/21 11:39:39;;;;;;;3.50;1.80;;;;;;;;;;80043;256;3027937;-38
2023/03/21 11:42:34;;;;;;;3.80;1.90;;;;;;;;;;80089;255;3030691;-38
2023/03/21 11:45:16;;;;;;;3.40;1.80;;;;;;;;;;80086;255;3032040;-38
2023/03/21 11:47:54;;;;;;;3.30;1.70;;;;;;;;;;80056;256;3028527;-38
2023/03/21 11:50:37;;;;;;;3.50;1.70;;;;;;;;;;80082;256;3026972;-38
2023/03/21 11:53:37;;;;;;;3.60;1.70;;;;;;;;;;80051;255;3030492;-38
2023/03/21 11:56:28;;;;;;;3.70;1.80;;;;;;;;;;80093;256;3031598;-38
2023/03/21 11:59:36;;;;;;;3.70;1.80;;;;;;;;;;80101;256;3028615;-38
2023/03/21 12:03:04;;;;;;;3.20;1.60;;;;;;;;;;80072;255;3027691;-38
2023/03/21 12:05:45;;;;;;;3.10;1.70;;;;;;;;;;80095;255;3031676;-38
2023/03/21 12:08:33;;;;;;;3.10;1.60;;;;;;;;;;80082;256;3031593;-38
2023/03/21 12:11:21;;;;;;;3.60;1.80;;;;;;;;;;80056;255;3028438;-38
2023/03/21 12:14:09;;;;;;;3.50;1.70;;;;;;;;;;80049;255;3027673;-38
2023/03/21 12:17:01;;;;;;;3.50;1.70;;;;;;;;;;80100;256;3031245;-38
2023/03/21 12:20:00;;;;;;;3.80;1.70;;;;;;;;;;80075;255;3031248;-38
2023/03/21 12:22:51;;;;;;;3.20;1.50;;;;;;;;;;80027;255;3028637;-38
2023/03/21 12:25:34;;;;;;;3.40;1.50;;;;;;;;;;80062;256;3027483;-38
2023/03/21 12:28:27;;;;;;;3.10;1.60;;;;;;;;;;80079;256;3030561;-38
2023/03/21 12:31:18;;;;;;;3.40;1.40;;;;;;;;;;80106;255;3032030;-38
2023/03/21 12:34:20;;;;;;;3.20;1.50;;;;;;;;;;80039;244;3028282;-38
2023/03/21 12:37:11;;;;;;;2.90;1.50;;;;;;;;;;80043;256;3027271;-36
2023/03/21 12:39:51;;;;;;;3.00;1.40;;;;;;;;;;80075;255;3030652;-38
2023/03/21 12:42:52;;;;;;;3.20;1.70;;;;;;;;;;80065;255;3031745;-38
2023/03/21 12:45:35;;;;;;;3.10;1.50;;;;;;;;;;80050;256;3033878;-38
2023/03/21 12:48:28;;;;;;;2.90;1.50;;;;;;;;;;80074;256;3028761;-38
2023/03/21 12:51:13;;;;;;;2.90;1.50;;;;;;;;;;80123;256;3031159;-38
2023/03/21 12:53:54;;;;;;;;;;;;;;;;;;80099;255;3031985;-38
2023/03/21 12:56:34;;;;;;;3.20;1.50;;;;;;;;;;80079;255;3028591;-38
2023/03/21 12:59:30;;;;;;;3.30;1.50;;;;;;;;;;80108;256;3027208;-39
2023/03/21 13:02:20;;;;;;;3.20;1.60;;;;;;;;;;80086;255;3030774;-38
2023/03/21 13:05:16;;;;;;;3.20;1.40;;;;;;;;;;80078;255;3032041;-38
2023/03/21 13:07:57;;;;;;;2.80;1.60;;;;;;;;;;80092;255;3028075;-38
2023/03/21 13:10:32;;;;;;;3.40;1.60;;;;;;;;;;80088;255;3028252;-38
2023/03/21 13:13:21;;;;;;;3.10;1.60;;;;;;;;;;80071;256;3031333;-38
2023/03/21 13:16:17;;;;;;;2.90;1.60;;;;;;;;;;80018;257;3031970;-36
2023/03/21 13:19:05;;;;;;;2.70;1.30;;;;;;;;;;80093;256;3028563;-36
2023/03/21 13:21:54;;;;;;;2.90;1.40;;;;;;;;;;80106;263;3027237;-36
2023/03/21 13:24:38;;;;;;;3.50;1.60;;;;;;;;;;80048;255;3030781;-36
2023/03/21 13:27:28;;;;;;;3.20;1.40;;;;;;;;;;80129;260;3032574;-36
2023/03/21 13:30:18;;;;;;;3.10;1.40;;;;;;;;;;80069;256;3028275;-36
2023/03/21 13:33:06;;;;;;;2.70;1.30;;;;;;;;;;80135;256;3028684;-36
2023/03/21 13:35:45;;;;;;;2.90;1.50;;;;;;;;;;80082;256;3030431;-36
2023/03/21 13:38:25;;;;;;;2.60;1.40;;;;;;;;;;80105;279;3031921;-36
2023/03/21 13:41:09;;;;;;;3.00;1.30;;;;;;;;;;80094;256;3028399;-36
2023/03/21 13:43:54;;;;;;;3.10;1.60;;;;;;;;;;80083;256;3027870;-36
2023/03/21 13:46:45;;;;;;;3.00;1.40;;;;;;;;;;80056;314;3031203;-36
2023/03/21 13:49:35;;;;;;;3.10;1.50;;;;;;;;;;80082;256;3032811;-36
2023/03/21 13:52:30;;;;;;;3.00;1.30;;;;;;;;;;80118;255;3027875;-36
2023/03/21 13:55:18;;;;;;;2.80;1.50;;;;;;;;;;80065;256;3027755;-36
2023/03/21 13:57:57;;;;;;;3.00;1.30;;;;;;;;;;80122;248;3030472;-36
2023/03/21 14:00:44;;;;;;;3.10;1.50;;;;;;;;;;80124;255;3032101;-36
2023/03/21 14:03:23;;;;;;;3.00;1.50;;;;;;;;;;80086;252;3028648;-36
2023/03/21 14:06:01;;;;;;;2.80;1.40;;;;;;;;;;80047;244;3027868;-36
2023/03/21 14:08:41;;;;;;;3.10;1.50;;;;;;;;;;80088;255;3031431;-36
2023/03/21 14:11:19;;;;;;;3.10;1.50;;;;;;;;;;80098;255;3031303;-36
2023/03/21 14:13:59;;;;;;;3.00;1.50;;;;;;;;;;80066;256;3028548;-36
2023/03/21 14:16:37;;;;;;;3.10;1.40;;;;;;;;;;80053;256;3027203;-36
2023/03/21 14:19:16;;;;;;;3.10;1.50;;;;;;;;;;80089;256;3031091;-36
2023/03/21 14:21:52;;;;;;;2.80;1.40;;;;;;;;;;80059;255;3031693;-36
2023/03/21 14:24:30;;;;;;;2.90;1.50;;;;;;;;;;80092;256;3027917;-36
2023/03/21 14:27:11;;;;;;;3.20;1.50;;;;;;;;;;80077;255;3027406;-39
2023/03/21 14:29:49;;;;;;;4.40;1.80;;;;;;;;;;80114;256;3031430;-39
2023/03/21 14:32:29;;;;;;;4.90;2.00;;;;;;;;;;80063;255;3032170;-38
2023/03/21 14:35:09;;;;;;;4.50;1.80;;;;;;;;;;80080;256;3028335;-38
2023/03/21 14:37:50;;;;;;;4.40;1.80;;;;;;;;;;79873;256;3034972;-38
2023/03/21 14:40:30;;;;;;;4.00;1.80;;;;;;;;;;80056;255;3031214;-38
2023/03/21 14:43:12;;;;;;;3.90;1.70;;;;;;;;;;80067;256;3031444;-38
2023/03/21 14:45:53;;;;;;;4.40;1.90;;;;;;;;;;80076;255;3027904;-38
2023/03/21 14:48:37;;;;;;;4.20;1.70;;;;;;;;;;80079;256;3028331;-38
2023/03/21 14:51:14;;;;;;;5.00;1.70;;;;;;;;;;80124;256;3030591;-38
2023/03/21 14:53:50;;;;;;;4.20;1.70;;;;;;;;;;80070;256;3031181;-37
2023/03/21 14:56:27;;;;;;;4.10;1.70;;;;;;;;;;80766;256;3011874;-37
2023/03/21 14:59:03;;;;;;;3.40;1.70;;;;;;;;;;80103;256;3028413;-38
2023/03/21 15:01:44;;;;;;;4.00;1.50;;;;;;;;;;80112;256;3027704;-38
2023/03/21 15:04:24;;;;;;;4.00;1.70;;;;;;;;;;80095;256;3030680;-36
2023/03/21 15:07:03;;;;;;;4.00;1.70;;;;;;;;;;80076;256;3031966;-38
2023/03/21 15:09:41;;;;;;;3.50;1.70;;;;;;;;;;80088;256;3028306;-36
2023/03/21 15:12:22;;;;;;;3.40;1.60;;;;;;;;;;80055;256;3029118;-36
2023/03/21 15:15:01;;;;;;;3.50;1.70;;;;;;;;;;80073;256;3030635;-36
2023/03/21 15:17:36;;;;;;;3.80;1.70;;;;;;;;;;80060;256;3032107;-35
2023/03/21 15:20:16;;;;;;;4.10;1.80;;;;;;;;;;80068;256;3028638;-35
2023/03/21 15:22:54;;;;;;;4.20;1.70;;;;;;;;;;80081;255;3027067;-35
2023/03/21 15:25:34;;;;;;;3.70;1.60;;;;;;;;;;80085;256;3030934;-35
2023/03/21 15:28:20;;;;;;;4.00;1.80;;;;;;;;;;80066;256;3032052;-35
2023/03/21 15:30:57;;;;;;;3.50;1.60;;;;;;;;;;80087;256;3029138;-36
2023/03/21 15:33:34;;;;;;;3.40;1.60;;;;;;;;;;80067;256;3027870;-36
2023/03/21 15:36:22;;;;;;;3.90;1.60;;;;;;;;;;80054;256;3030528;-36
2023/03/21 15:39:03;;;;;;;3.50;1.50;;;;;;;;;;80071;256;3038263;-36
2023/03/21 15:41:42;;;;;;;3.50;1.70;;;;;;;;;;80064;272;3028203;-36
2023/03/21 15:44:18;;;;;;;3.50;1.50;;;;;;;;;;80092;256;3027597;-34
2023/03/21 15:46:55;;;;;;;4.20;1.80;;;;;;;;;;80025;245;3029672;-34
2023/03/21 15:49:35;;;;;;;3.40;1.50;;;;;;;;;;80093;256;3038540;-34
2023/03/21 15:52:16;;;;;;;3.50;1.60;;;;;;;;;;80085;256;3028262;-34
2023/03/21 15:54:55;;;;;;;2.70;1.30;;;;;;;;;;80067;256;3027073;-34
2023/03/21 15:57:36;;;;;;;3.80;1.60;;;;;;;;;;80025;256;3030354;-34
2023/03/21 16:00:37;;;;;;;3.50;1.60;;;;;;;;;;80096;256;3031609;-34
2023/03/21 16:03:21;;;;;;;3.40;1.40;;;;;;;;;;80069;256;3028035;-34